• Join FlightAware (Why Join?)
  • Login
  • US Flag 
08:29PM EDT


 

Airport Tracker/Info


-or-


 

Live Flight TrackerFlight Track Log ✈ UPS1325 ✈ 28 de Feb de 2014 ✈ KMCO - KSDF

Flight Track Log - Related Links

Times and Time Zones

All times are in EST time to prevent confusion due to time zone crossing. See the UPS1325 flight status page for this flight to view local times or setup timezone preferences in your user account.

Time Position Orientation Groundspeed Altitude Reporting Facility
EST Latitude Longitude Course Direction KTS MPH feet Rate Location/Type
10:17PM 28.4381 -81.3222 359° North 170 196 400  Level FlightAware ADS-B (KMCO)
10:18PM 28.4457 -81.3220 North 167 192 1,200 2,700 Climbing FlightAware ADS-B (KMCO)
10:18PM 28.4626 -81.3202 North 212 244 1,800 2,580 Climbing FlightAware ADS-B (KMCO)
10:18PM 28.4850 -81.3175 North 230 265 3,000 3,660 Climbing FlightAware ADS-B (KMCO)
10:19PM 28.5046 -81.3151 North 250 288 4,200 3,780 Climbing FlightAware ADS-B (KMCO)
10:19PM 28.4861 -81.3174 North 259 298 5,300 4,440 Climbing FlightAware ADS-B (VOCI / COK)
10:19PM 28.5423 -81.3103 358° North 260 299 6,500 5,700 Climbing FlightAware ADS-B (KMCO)
10:19PM 28.5542 -81.3126 345° North 250 288 7,600 5,520 Climbing FlightAware ADS-B (KMCO)
10:20PM 28.5711 -81.3183 343° North 250 288 8,800 4,020 Climbing FlightAware ADS-B (VOCI / COK)
10:20PM 28.6062 -81.3301 344° North 284 327 10,700 2,160 Climbing FlightAware ADS-B (VOCI / COK)
10:21PM 28.6565 -81.3460 344° North 345 397 11,200 960 Climbing FlightAware ADS-B (KMCO)
10:21PM 28.7068 -81.3620 344° North 390 449 11,800 1,560 Climbing FlightAware ADS-B (KMCO)
10:21PM 28.7329 -81.3707 343° North 394 453 12,400 2,700 Climbing FlightAware ADS-B (KSFB)
10:22PM 28.7459 -81.3754 343° North 394 453 12,900 3,780 Climbing FlightAware ADS-B (VOCI / COK)
10:22PM 28.8114 -81.3989 343° North 419 482 15,200 4,080 Climbing FlightAware ADS-B (KMCO)
10:23PM 28.8706 -81.4193 343° North 427 491 17,400 4,140 Climbing FlightAware ADS-B (KMCO)
10:23PM 28.9252 -81.4381 343° North 436 502 19,500 3,480 Climbing FlightAware ADS-B (KSFB)
10:24PM 29.0075 -81.4666 343° North 456 525 21,500 3,180 Climbing FlightAware ADS-B (KMCO)
10:24PM 29.0697 -81.4883 343° North 465 535 23,200 3,120 Climbing FlightAware ADS-B (KMCO)
10:25PM 29.1302 -81.5094 343° North 472 543 24,700 3,240 Climbing FlightAware ADS-B (KMCO)
10:25PM 29.1945 -81.5318 343° North 466 536 26,500 4,860 Climbing FlightAware ADS-B (KMCO)
10:26PM 29.2561 -81.5530 343° North 425 489 29,600 4,860 Climbing FlightAware ADS-B (KMCO)
10:26PM 29.3108 -81.5714 344° North 415 478 31,400 2,460 Climbing FlightAware ADS-B (KMCO)
10:27PM 29.3609 -81.5890 342° North 423 487 32,100 1,020 Climbing FlightAware ADS-B (KMCO)
10:28PM 29.4808 -81.6318 343° North 426 490 33,000 540 Climbing FlightAware ADS-B (KMCO)
10:28PM 29.5500 -81.6560 343° North 427 491 33,000  Level FlightAware ADS-B (KMCO)
10:30PM 29.7457 -81.7249 343° North 425 489 33,000  Level FlightAware ADS-B (KMCO)
10:31PM 29.7979 -81.7433 343° North 426 490 33,000  Level FlightAware ADS-B (KMCO)
10:32PM 29.9361 -81.7886 344° North 428 493 33,000  Level FlightAware ADS-B (KMCO)
10:33PM 30.0700 -81.8317 344° North 419 482 33,000  Level Jacksonville Center
10:34PM 30.1706 -81.8642 344° North 419 482 33,000 -60 Level Jacksonville Center
10:35PM 30.2836 -81.9014 344° North 419 482 32,900  Descending Jacksonville Center
10:36PM 30.3967 -81.9389 344° North 419 482 33,000  Climbing Jacksonville Center
10:37PM 30.5097 -81.9764 344° North 419 482 33,000  Level Jacksonville Center
10:38PM 30.6228 -82.0211 341° North 419 482 33,000  Level Jacksonville Center
10:39PM 30.7356 -82.0564 345° North 424 488 33,000 -60 Level Jacksonville Center
10:40PM 30.8486 -82.0964 343° North 424 488 32,900  Descending Jacksonville Center
10:41PM 30.9617 -82.1342 344° North 418 481 33,000  Climbing Jacksonville Center
10:42PM 31.0747 -82.1722 344° North 418 481 33,000  Level Jacksonville Center
10:43PM 31.1875 -82.2078 345° North 418 481 33,000  Level Jacksonville Center
10:44PM 31.3025 -82.2506 342° North 418 481 33,000  Level Jacksonville Center
10:45PM 31.4197 -82.2889 344° North 423 487 33,000  Level Jacksonville Center
10:46PM 31.5472 -82.3294 345° North 423 487 33,000  Level Jacksonville Center
10:47PM 31.6644 -82.3678 344° North 423 487 33,000  Level Jacksonville Center
10:49PM 31.8342 -82.4281 343° North 443 510 33,000  Level Atlanta Center
10:50PM 31.9475 -82.4675 344° North 438 504 33,000  Level Atlanta Center
10:51PM 32.0647 -82.5094 343° North 438 504 33,000  Level Atlanta Center
10:52PM 32.1822 -82.5517 343° North 433 498 33,000  Level Atlanta Center
10:53PM 32.2975 -82.5892 345° North 433 498 33,000  Level Atlanta Center
10:54PM 32.4169 -82.6289 344° North 438 504 33,000  Level Atlanta Center
10:55PM 32.5322 -82.6714 343° North 443 510 33,000  Level Atlanta Center
10:56PM 32.6536 -82.7114 344° North 443 510 33,000 -120 Level Atlanta Center
10:57PM 32.7731 -82.7567 342° North 443 510 32,800 -540 Descending Atlanta Center
10:58PM 32.8842 -82.8019 341° North 437 503 32,000 -420 Descending Atlanta Center
10:59PM 32.9975 -82.8500 340° North 427 491 32,000  Level Atlanta Center
11:00PM 33.1106 -82.8981 340° North 427 491 32,000  Level Atlanta Center
11:01PM 33.2406 -82.9533 340° North 441 507 32,000  Level Atlanta Center
11:02PM 33.3536 -83.0017 340° North 441 507 32,000  Level Atlanta Center
11:03PM 33.4667 -83.0503 340° North 436 502 32,000  Level Atlanta Center
11:04PM 33.5839 -83.0986 341° North 436 502 32,000  Level Atlanta Center
11:05PM 33.6867 -83.1450 339° North 430 495 32,000  Level Atlanta Center
11:10PM 34.3314 -83.4242 340° North 443 510 32,000  Level FlightAware ADS-B (KDZJ)
11:11PM 34.4103 -83.4588 340° North 446 513 32,000  Level FlightAware ADS-B (KDZJ)
11:11PM 34.4876 -83.4931 340° North 448 516 32,000  Level FlightAware ADS-B (KDZJ)
11:12PM 34.5634 -83.5267 340° North 450 518 32,000  Level FlightAware ADS-B (KDZJ)
11:13PM 34.6381 -83.5600 339° North 444 511 32,000 60 Level FlightAware ADS-B (KDZJ)
11:13PM 34.7096 -83.5914 340° North 445 512 32,100  Climbing FlightAware ADS-B (KDZJ)
11:14PM 34.8014 -83.6328 339° North 446 513 32,000 -120 Descending FlightAware ADS-B (KDZJ)
11:15PM 34.8815 -83.6685 340° North 449 517 32,000  Level FlightAware ADS-B (KDZJ)
11:15PM 34.9590 -83.7027 339° North 447 514 32,000  Level FlightAware ADS-B (KDZJ)
11:16PM 35.0408 -83.7391 339° North 447 514 32,000  Level FlightAware ADS-B (KDZJ)
11:17PM 35.1206 -83.7755 339° North 447 514 32,000  Level FlightAware ADS-B (KDZJ)
11:17PM 35.1910 -83.8066 340° North 447 514 32,000  Level FlightAware ADS-B (KDZJ)
11:18PM 35.2707 -83.8423 339° North 447 514 32,000  Level FlightAware ADS-B (KDZJ)
11:19PM 35.3506 -83.8784 339° North 448 516 32,000  Level FlightAware ADS-B (KDZJ)
11:19PM 35.4330 -83.9161 339° North 449 517 32,000  Level FlightAware ADS-B (KDZJ)
11:20PM 35.4733 -83.9339 339° North 433 498 32,000  Level Indianapolis Center
11:21PM 35.5700 -83.9800 339° North 450 518 32,000  Level Atlanta Center
11:22PM 35.6911 -84.0389 338° Northwest 450 518 32,000  Level Atlanta Center
11:23PM 35.8100 -84.0925 340° North 450 518 32,000  Level Atlanta Center
11:24PM 35.9331 -84.1464 340° North 450 518 32,000 -600 Level Atlanta Center
11:26PM 36.1939 -84.2642 340° North 462 532 30,200 -660 Descending Indianapolis Center
11:27PM 36.3172 -84.3217 339° North 469 540 30,000 -120 Descending Indianapolis Center
11:28PM 36.4406 -84.3783 340° North 470 541 30,000 -1,080 Level Indianapolis Center
11:34PM 37.1777 -84.7247 339° North 422 486 22,700 -1,560 Descending FlightAware ADS-B (KBRY)
11:35PM 37.2805 -84.7756 339° North 408 470 19,600 -3,120 Descending FlightAware ADS-B (KBRY)
11:36PM 37.3700 -84.8183 339° North 398 458 16,800 -2,940 Descending FlightAware ADS-B (KBRY)
11:36PM 37.4407 -84.8513 339° North 388 447 15,100 -1,740 Descending FlightAware ADS-B (KBRY)
11:39PM 37.7015 -85.0194 312° West 343 395 10,800 -1,320 Descending FlightAware ADS-B (KBRY)
11:40PM 37.7645 -85.1064 307° West 320 368 9,900 -660 Descending FlightAware ADS-B (KBRY)
11:41PM 37.7982 -85.1920 297° West 277 319 9,500 -720 Descending FlightAware ADS-B (KBRY)
11:42PM 37.8313 -85.2845 293° West 268 308 8,500 -960 Descending FlightAware ADS-B (KBRY)
11:43PM 37.8596 -85.3677 293° West 268 308 7,600 -1,020 Descending FlightAware ADS-B (KBRY)
11:44PM 37.8903 -85.4582 294° West 259 298 6,500 -1,200 Descending FlightAware ADS-B (KBRY)
11:45PM 37.9174 -85.5362 293° West 252 290 5,300 -1,200 Descending FlightAware ADS-B (KBRY)
11:46PM 37.9454 -85.6185 293° West 242 278 4,100 -900 Descending FlightAware ADS-B (KBRY)
11:47PM 37.9785 -85.6809 349° North 243 280 3,600 -720 Descending FlightAware ADS-B (KBRY)
11:48PM 38.0408 -85.7006 345° North 203 234 2,800 -960 Descending FlightAware ADS-B (KBRY)
11:49PM 38.0882 -85.7160 345° North 173 199 1,700 -1,020 Descending FlightAware ADS-B (KBRY)
11:50PM 38.1227 -85.7276 345° North 161 185 1,100 -960 Descending FlightAware ADS-B (KBRY)
11:57PM 38.1667 -85.7333 208° Southwest  Level FlightAware Approximate
11:58PM 38.1741 -85.7365 208° Southwest  Level Estimated
11:59PM 38.1741 -85.7365 208° Southwest  Level Estimated